createdAt,value
2022-08-28T00:00:09.368Z,16.10
2022-08-28T00:02:56.231Z,16.10
2022-08-28T00:05:42.544Z,16.10
2022-08-28T00:08:30.452Z,16.10
2022-08-28T00:11:16.507Z,16.10
2022-08-28T00:14:04.195Z,16.10
2022-08-28T00:16:49.807Z,16.10
2022-08-28T00:19:38.663Z,16.10
2022-08-28T00:22:24.816Z,16.00
2022-08-28T00:25:13.282Z,16.00
2022-08-28T00:28:07.563Z,16.00
2022-08-28T00:30:59.017Z,16.00
2022-08-28T00:33:44.556Z,16.00
2022-08-28T00:36:30.239Z,16.00
2022-08-28T00:39:15.955Z,16.00
2022-08-28T00:42:05.348Z,16.00
2022-08-28T00:44:51.208Z,16.10
2022-08-28T00:47:39.149Z,16.00
2022-08-28T00:50:28.811Z,16.10
2022-08-28T00:53:14.582Z,16.00
2022-08-28T00:56:09.476Z,16.00
2022-08-28T00:59:05.434Z,16.00
2022-08-28T01:01:56.374Z,16.00
2022-08-28T01:04:42.699Z,16.00
2022-08-28T01:07:28.396Z,15.90
2022-08-28T01:10:18.220Z,15.90
2022-08-28T01:13:04.492Z,15.90
2022-08-28T01:15:51.394Z,15.90
2022-08-28T01:18:37.491Z,15.90
2022-08-28T01:22:19.017Z,15.90
2022-08-28T01:25:15.245Z,15.90
2022-08-28T01:28:02.112Z,15.90
2022-08-28T01:30:49.453Z,15.90
2022-08-28T01:33:34.787Z,15.90
2022-08-28T01:36:21.003Z,15.90
2022-08-28T01:39:13.353Z,15.90
2022-08-28T01:42:00.823Z,15.90
2022-08-28T01:44:47.506Z,15.90
2022-08-28T01:47:33.395Z,15.90
2022-08-28T01:50:21.177Z,15.90
2022-08-28T01:53:07.922Z,15.90
2022-08-28T01:55:59.150Z,15.80
2022-08-28T01:58:45.664Z,15.90
2022-08-28T02:01:31.680Z,15.90
2022-08-28T02:04:17.315Z,15.90
2022-08-28T02:07:03.724Z,15.90
2022-08-28T02:09:49.274Z,15.80
2022-08-28T02:12:35.957Z,15.80
2022-08-28T02:15:23.662Z,15.80
2022-08-28T02:18:09.948Z,15.80
2022-08-28T02:20:55.387Z,15.80
2022-08-28T02:23:43.412Z,15.80
2022-08-28T02:26:30.370Z,15.80
2022-08-28T02:29:15.995Z,15.80
2022-08-28T02:32:02.429Z,15.80
2022-08-28T02:34:48.300Z,15.80
2022-08-28T02:37:34.022Z,15.90
2022-08-28T02:40:22.399Z,15.90
2022-08-28T02:43:08.306Z,15.90
2022-08-28T02:45:53.845Z,15.90
2022-08-28T02:48:40.559Z,15.90
2022-08-28T02:51:26.513Z,15.80
2022-08-28T02:54:12.290Z,15.90
2022-08-28T02:57:00.579Z,15.90
2022-08-28T02:59:47.769Z,15.90
2022-08-28T03:02:33.679Z,15.90
2022-08-28T03:05:25.375Z,15.90
2022-08-28T03:08:11.356Z,15.90
2022-08-28T03:10:57.119Z,15.90
2022-08-28T03:13:43.116Z,15.90
2022-08-28T03:16:28.936Z,15.90
2022-08-28T03:19:15.670Z,15.80
2022-08-28T03:22:01.431Z,15.90
2022-08-28T03:24:47.366Z,15.80
2022-08-28T03:27:33.250Z,15.80
2022-08-28T03:30:20.042Z,15.80
2022-08-28T03:33:05.887Z,15.90
2022-08-28T03:35:51.705Z,15.90
2022-08-28T03:38:38.033Z,15.90
2022-08-28T03:41:25.761Z,16.00
2022-08-28T03:44:11.627Z,16.00
2022-08-28T03:46:57.341Z,16.00
2022-08-28T03:49:45.361Z,16.10
2022-08-28T03:52:31.620Z,16.10
2022-08-28T03:55:19.679Z,16.10
2022-08-28T03:58:05.584Z,16.10
2022-08-28T04:00:51.146Z,16.10
2022-08-28T04:03:37.258Z,16.10
2022-08-28T04:06:23.005Z,16.10
2022-08-28T04:09:08.959Z,16.10
2022-08-28T04:11:54.522Z,16.10
2022-08-28T04:14:40.370Z,16.10
2022-08-28T04:17:26.494Z,16.10
2022-08-28T04:20:12.547Z,16.10
2022-08-28T04:22:58.520Z,16.10
2022-08-28T04:25:45.894Z,16.10
2022-08-28T04:28:32.618Z,16.10
2022-08-28T04:31:19.234Z,16.10
2022-08-28T04:34:18.020Z,16.10
2022-08-28T04:37:05.451Z,16.10
2022-08-28T04:39:51.265Z,16.10
2022-08-28T04:42:38.389Z,16.20
2022-08-28T04:45:24.062Z,16.30
2022-08-28T04:48:13.710Z,16.30
2022-08-28T04:50:59.751Z,16.30
2022-08-28T04:53:45.548Z,16.40
2022-08-28T04:56:31.377Z,16.40
2022-08-28T04:59:17.291Z,16.40
2022-08-28T05:02:03.362Z,16.40
2022-08-28T05:04:49.380Z,16.30
2022-08-28T05:07:35.160Z,16.30
2022-08-28T05:10:21.066Z,16.30
2022-08-28T05:13:08.446Z,16.30
2022-08-28T05:15:55.339Z,16.30
2022-08-28T05:18:41.383Z,16.30
2022-08-28T05:21:27.779Z,16.30
2022-08-28T05:24:13.957Z,16.40
2022-08-28T05:26:59.656Z,16.40
2022-08-28T05:29:45.348Z,16.40
2022-08-28T05:32:31.042Z,16.50
2022-08-28T05:35:16.757Z,16.50
2022-08-28T05:38:05.023Z,16.50
2022-08-28T05:40:50.730Z,16.50
2022-08-28T05:43:37.006Z,16.50
2022-08-28T05:46:23.457Z,16.50
2022-08-28T05:49:10.357Z,16.50
2022-08-28T05:51:56.547Z,16.50
2022-08-28T05:54:43.429Z,16.60
2022-08-28T05:57:29.733Z,16.60
2022-08-28T06:00:15.737Z,16.50
2022-08-28T06:03:01.220Z,16.50
2022-08-28T06:05:54.123Z,16.50
2022-08-28T06:08:58.316Z,16.50
2022-08-28T06:11:46.448Z,16.60
2022-08-28T06:14:32.668Z,16.80
2022-08-28T06:17:20.053Z,16.90
2022-08-28T06:20:09.806Z,17.00
2022-08-28T06:22:55.243Z,17.10
2022-08-28T06:25:45.727Z,17.10
2022-08-28T06:28:31.381Z,17.20
2022-08-28T06:31:24.282Z,17.30
2022-08-28T06:34:11.675Z,17.30
2022-08-28T06:36:57.639Z,17.30
2022-08-28T06:39:43.572Z,17.50
2022-08-28T06:42:31.206Z,17.50
2022-08-28T06:45:16.777Z,17.50
2022-08-28T06:48:02.843Z,17.50
2022-08-28T06:50:50.205Z,17.40
2022-08-28T06:53:36.968Z,17.40
2022-08-28T06:56:26.139Z,17.40
2022-08-28T06:59:12.461Z,17.50
2022-08-28T07:01:58.535Z,17.60
2022-08-28T07:04:44.379Z,17.70
2022-08-28T07:07:32.666Z,17.70
2022-08-28T07:10:18.641Z,17.90
2022-08-28T07:13:05.812Z,18.00
2022-08-28T07:15:52.375Z,18.00
2022-08-28T07:18:38.209Z,18.10
2022-08-28T07:21:23.922Z,18.10
2022-08-28T07:24:14.877Z,18.20
2022-08-28T07:27:00.579Z,18.20
2022-08-28T07:29:46.345Z,18.10
2022-08-28T07:32:34.441Z,18.00
2022-08-28T07:35:20.974Z,18.00
2022-08-28T07:38:06.420Z,18.10
2022-08-28T07:40:53.608Z,18.20
2022-08-28T07:43:57.876Z,18.10
2022-08-28T07:46:44.493Z,18.10
2022-08-28T07:49:31.466Z,18.10
2022-08-28T07:52:17.649Z,18.20
2022-08-28T07:55:05.680Z,18.30
2022-08-28T07:57:51.684Z,18.30
2022-08-28T08:00:38.831Z,18.30
2022-08-28T08:03:25.525Z,18.30
2022-08-28T08:06:13.296Z,18.30
2022-08-28T08:08:59.865Z,18.30
2022-08-28T08:11:46.442Z,18.30
2022-08-28T08:14:32.359Z,18.20
2022-08-28T08:17:18.223Z,18.30
2022-08-28T08:20:05.572Z,18.30
2022-08-28T08:22:51.978Z,18.50
2022-08-28T08:25:37.540Z,18.40
2022-08-28T08:28:23.113Z,18.40
2022-08-28T08:31:10.323Z,18.40
2022-08-28T08:33:59.277Z,18.50
2022-08-28T08:36:44.859Z,18.50
2022-08-28T08:39:31.735Z,18.60
2022-08-28T08:42:31.606Z,18.60
2022-08-28T08:45:21.399Z,18.70
2022-08-28T08:48:11.387Z,18.80
2022-08-28T08:51:05.044Z,18.90
2022-08-28T08:54:06.030Z,18.90
2022-08-28T08:56:54.872Z,19.00
2022-08-28T08:59:41.656Z,19.00
2022-08-28T09:02:34.258Z,19.10
2022-08-28T09:05:26.475Z,19.10
2022-08-28T09:08:26.553Z,19.00
2022-08-28T09:11:51.057Z,19.10
2022-08-28T09:15:08.965Z,19.20
2022-08-28T09:17:59.596Z,19.10
2022-08-28T09:20:50.643Z,19.00
2022-08-28T09:23:36.512Z,19.00
2022-08-28T09:26:25.023Z,19.00
2022-08-28T09:29:19.068Z,19.20
2022-08-28T09:32:26.093Z,19.20
2022-08-28T09:35:15.667Z,19.10
2022-08-28T09:38:22.593Z,19.10
2022-08-28T09:41:32.295Z,19.30
2022-08-28T09:44:18.013Z,19.50
2022-08-28T09:47:03.835Z,19.80
2022-08-28T09:49:50.068Z,19.60
2022-08-28T09:52:36.727Z,19.60
2022-08-28T09:55:40.299Z,19.90
2022-08-28T09:58:54.655Z,19.90
2022-08-28T10:01:44.663Z,20.10
2022-08-28T10:04:53.217Z,20.10
2022-08-28T10:07:49.047Z,20.10
2022-08-28T10:10:53.836Z,20.10
2022-08-28T10:13:53.776Z,20.00
2022-08-28T10:16:55.793Z,20.00
2022-08-28T10:19:54.665Z,20.20
2022-08-28T10:23:00.814Z,20.20
2022-08-28T10:25:56.855Z,20.20
2022-08-28T10:28:56.147Z,20.40
2022-08-28T10:31:59.997Z,20.60
2022-08-28T10:35:13.908Z,20.60
2022-08-28T10:38:16.931Z,20.70
2022-08-28T10:41:16.478Z,20.80
2022-08-28T10:44:03.764Z,20.90
2022-08-28T10:46:53.497Z,21.00
2022-08-28T10:49:42.296Z,21.10
2022-08-28T10:52:45.155Z,21.30
2022-08-28T10:55:39.282Z,21.50
2022-08-28T10:58:27.447Z,21.60
2022-08-28T11:01:23.276Z,21.60
2022-08-28T11:04:24.936Z,21.50
2022-08-28T11:07:20.778Z,21.80
2022-08-28T11:10:32.214Z,21.80
2022-08-28T11:13:46.123Z,21.70
2022-08-28T11:16:32.048Z,22.10
2022-08-28T11:19:51.683Z,22.20
2022-08-28T11:22:56.239Z,21.70
2022-08-28T11:25:41.900Z,21.90
2022-08-28T11:28:36.580Z,21.90
2022-08-28T11:31:29.284Z,22.30
2022-08-28T11:34:53.097Z,22.30
2022-08-28T11:37:44.794Z,22.20
2022-08-28T11:40:30.548Z,22.30
2022-08-28T11:43:16.538Z,22.50
2022-08-28T11:46:13.069Z,22.80
2022-08-28T11:49:01.335Z,23.00
2022-08-28T11:51:53.599Z,22.80
2022-08-28T11:54:51.243Z,23.20
2022-08-28T11:57:52.391Z,23.60
2022-08-28T12:00:56.247Z,23.70
2022-08-28T12:04:02.776Z,23.70
2022-08-28T12:07:16.534Z,23.80
2022-08-28T12:10:05.174Z,24.00
2022-08-28T12:12:53.361Z,24.10
2022-08-28T12:15:43.258Z,23.80
2022-08-28T12:18:42.650Z,23.20
2022-08-28T12:21:30.424Z,23.30
2022-08-28T12:24:21.582Z,23.00
2022-08-28T12:27:09.398Z,22.80
2022-08-28T12:29:58.092Z,22.80
2022-08-28T12:32:56.025Z,22.90
2022-08-28T12:35:43.827Z,23.20
2022-08-28T12:38:32.966Z,23.20
2022-08-28T12:41:20.981Z,23.30
2022-08-28T12:44:09.037Z,23.40
2022-08-28T12:46:55.469Z,23.10
2022-08-28T12:49:41.068Z,22.90
2022-08-28T12:52:27.124Z,22.80
2022-08-28T12:55:12.828Z,23.00
2022-08-28T12:57:59.457Z,23.10
2022-08-28T13:00:56.906Z,23.60
2022-08-28T13:03:54.739Z,23.40
2022-08-28T13:06:40.411Z,24.10
2022-08-28T13:09:28.815Z,23.90
2022-08-28T13:12:55.226Z,23.40
2022-08-28T13:16:01.478Z,23.30
2022-08-28T13:18:51.314Z,23.20
2022-08-28T13:22:01.898Z,22.70
2022-08-28T13:24:48.280Z,22.50
2022-08-28T13:27:34.622Z,22.40
2022-08-28T13:30:26.412Z,22.00
2022-08-28T13:33:24.777Z,21.90
2022-08-28T13:36:25.125Z,21.90
2022-08-28T13:39:12.713Z,21.90
2022-08-28T13:42:05.966Z,21.70
2022-08-28T13:44:56.754Z,21.80
2022-08-28T13:47:43.613Z,21.70
2022-08-28T13:50:29.329Z,21.60
2022-08-28T13:53:17.491Z,21.60
2022-08-28T13:56:03.693Z,21.30
2022-08-28T13:58:57.639Z,21.30
2022-08-28T14:02:03.083Z,21.20
2022-08-28T14:04:49.005Z,21.20
2022-08-28T14:07:34.770Z,21.20
2022-08-28T14:10:21.619Z,21.20
2022-08-28T14:13:07.190Z,21.50
2022-08-28T14:15:53.805Z,21.50
2022-08-28T14:18:39.678Z,21.30
2022-08-28T14:21:25.375Z,21.10
2022-08-28T14:24:11.455Z,20.90
2022-08-28T14:26:57.363Z,21.00
2022-08-28T14:29:43.538Z,21.70
2022-08-28T14:32:29.552Z,21.90
2022-08-28T14:35:15.344Z,21.70
2022-08-28T14:38:02.484Z,21.60
2022-08-28T14:40:48.337Z,21.60
2022-08-28T14:43:34.521Z,21.60
2022-08-28T14:46:28.512Z,21.40
2022-08-28T14:49:16.321Z,21.30
2022-08-28T14:52:02.306Z,21.10
2022-08-28T14:54:47.792Z,20.80
2022-08-28T14:57:33.442Z,20.70
2022-08-28T15:00:19.030Z,20.60
2022-08-28T15:03:04.876Z,20.40
2022-08-28T15:06:10.290Z,20.50
2022-08-28T15:08:56.400Z,20.40
2022-08-28T15:11:43.087Z,20.40
2022-08-28T15:14:28.736Z,20.30
2022-08-28T15:17:14.735Z,20.30
2022-08-28T15:20:00.968Z,20.20
2022-08-28T15:22:46.971Z,20.20
2022-08-28T15:25:32.462Z,20.10
2022-08-28T15:28:19.057Z,20.10
2022-08-28T15:31:05.339Z,20.10
2022-08-28T15:33:51.737Z,19.90
2022-08-28T15:36:38.368Z,19.90
2022-08-28T15:39:44.840Z,19.90
2022-08-28T15:42:31.207Z,19.80
2022-08-28T15:45:17.083Z,19.70
2022-08-28T15:48:03.195Z,19.70
2022-08-28T15:50:49.038Z,19.50
2022-08-28T15:53:34.994Z,19.50
2022-08-28T15:56:20.937Z,19.50
2022-08-28T15:59:06.654Z,19.60
2022-08-28T16:01:54.166Z,19.60
2022-08-28T16:04:40.667Z,19.80
2022-08-28T16:07:26.152Z,20.50
2022-08-28T16:10:13.715Z,21.00
2022-08-28T16:13:00.493Z,21.70
2022-08-28T16:15:47.020Z,21.40
2022-08-28T16:18:33.076Z,21.70
2022-08-28T16:21:19.827Z,21.50
2022-08-28T16:24:05.853Z,21.30
2022-08-28T16:26:51.788Z,20.80
2022-08-28T16:29:38.314Z,20.60
2022-08-28T16:32:24.969Z,20.40
2022-08-28T16:35:11.667Z,20.20
2022-08-28T16:37:57.180Z,20.10
2022-08-28T16:40:44.658Z,19.90
2022-08-28T16:43:30.399Z,20.00
2022-08-28T16:46:22.066Z,20.10
2022-08-28T16:49:07.769Z,20.30
2022-08-28T16:51:53.505Z,20.60
2022-08-28T16:54:48.281Z,20.70
2022-08-28T16:57:34.602Z,20.50
2022-08-28T17:00:20.449Z,20.30
2022-08-28T17:03:05.904Z,20.00
2022-08-28T17:05:54.127Z,19.70
2022-08-28T17:08:40.265Z,20.00
2022-08-28T17:11:27.137Z,20.20
2022-08-28T17:14:13.037Z,20.00
2022-08-28T17:16:58.617Z,20.30
2022-08-28T17:19:44.380Z,20.60
2022-08-28T17:22:32.870Z,20.60
2022-08-28T17:25:18.663Z,20.60
2022-08-28T17:28:04.602Z,20.70
2022-08-28T17:30:50.490Z,20.70
2022-08-28T17:33:42.319Z,20.70
2022-08-28T17:36:33.108Z,20.60
2022-08-28T17:39:19.512Z,20.60
2022-08-28T17:42:06.179Z,20.40
2022-08-28T17:44:51.927Z,20.20
2022-08-28T17:47:38.025Z,20.10
2022-08-28T17:50:24.227Z,19.80
2022-08-28T17:53:10.039Z,19.60
2022-08-28T17:55:55.713Z,19.40
2022-08-28T17:58:41.343Z,19.20
2022-08-28T18:01:27.266Z,19.10
2022-08-28T18:04:17.044Z,19.00
2022-08-28T18:07:06.062Z,18.90
2022-08-28T18:09:51.891Z,18.80
2022-08-28T18:12:40.275Z,18.70
2022-08-28T18:15:26.920Z,18.70
2022-08-28T18:18:13.428Z,18.60
2022-08-28T18:20:59.272Z,18.60
2022-08-28T18:23:45.246Z,18.40
2022-08-28T18:26:31.295Z,18.30
2022-08-28T18:29:17.690Z,18.30
2022-08-28T18:32:05.124Z,18.20
2022-08-28T18:34:50.813Z,18.10
2022-08-28T18:37:36.748Z,18.10
2022-08-28T18:40:23.162Z,18.00
2022-08-28T18:43:09.144Z,18.00
2022-08-28T18:45:54.969Z,17.90
2022-08-28T18:48:42.073Z,17.90
2022-08-28T18:51:32.162Z,17.90
2022-08-28T18:54:18.971Z,17.90
2022-08-28T18:57:05.134Z,17.90
2022-08-28T18:59:51.432Z,17.80
2022-08-28T19:02:41.318Z,17.80
2022-08-28T19:05:27.114Z,17.80
2022-08-28T19:08:15.274Z,17.80
2022-08-28T19:11:05.201Z,17.80
2022-08-28T19:13:50.967Z,17.70
2022-08-28T19:16:36.907Z,17.70
2022-08-28T19:19:22.910Z,17.70
2022-08-28T19:22:10.237Z,17.70
2022-08-28T19:24:56.234Z,17.60
2022-08-28T19:27:42.614Z,17.60
2022-08-28T19:30:32.830Z,17.60
2022-08-28T19:33:18.983Z,17.60
2022-08-28T19:36:05.256Z,17.60
2022-08-28T19:38:50.787Z,17.50
2022-08-28T19:41:37.470Z,17.50
2022-08-28T19:44:22.968Z,17.50
2022-08-28T19:47:08.983Z,17.50
2022-08-28T19:49:54.957Z,17.40
2022-08-28T19:52:44.213Z,17.40
2022-08-28T19:55:30.005Z,17.40
2022-08-28T19:58:16.404Z,17.40
2022-08-28T20:01:03.016Z,17.30
2022-08-28T20:03:49.095Z,17.30
2022-08-28T20:06:36.604Z,17.30
2022-08-28T20:09:22.748Z,17.30
2022-08-28T20:12:08.618Z,17.30
2022-08-28T20:14:54.162Z,17.20
2022-08-28T20:17:44.065Z,17.20
2022-08-28T20:20:35.781Z,17.30
2022-08-28T20:23:21.431Z,17.30
2022-08-28T20:26:09.497Z,17.20
2022-08-28T20:28:55.410Z,17.20
2022-08-28T20:31:43.953Z,17.20
2022-08-28T20:34:29.805Z,17.20
2022-08-28T20:37:16.762Z,17.20
2022-08-28T20:40:06.558Z,17.10
2022-08-28T20:42:54.990Z,17.10
2022-08-28T20:45:40.573Z,17.10
2022-08-28T20:48:26.047Z,17.10
2022-08-28T20:51:12.727Z,17.10
2022-08-28T20:53:58.279Z,17.10
2022-08-28T20:56:43.900Z,17.10
2022-08-28T20:59:35.429Z,17.10
2022-08-28T21:02:28.473Z,17.10
2022-08-28T21:05:14.403Z,17.10
2022-08-28T21:07:59.981Z,17.10
2022-08-28T21:10:46.201Z,17.10
2022-08-28T21:13:32.353Z,17.00
2022-08-28T21:16:17.962Z,17.10
2022-08-28T21:19:15.694Z,17.10
2022-08-28T21:22:02.462Z,17.10
2022-08-28T21:24:49.910Z,17.10
2022-08-28T21:27:37.056Z,17.10
2022-08-28T21:30:22.753Z,17.10
2022-08-28T21:33:11.001Z,17.10
2022-08-28T21:35:56.844Z,17.10
2022-08-28T21:38:42.678Z,17.10
2022-08-28T21:41:29.588Z,17.20
2022-08-28T21:44:15.889Z,17.10
2022-08-28T21:47:01.396Z,17.10
2022-08-28T21:49:51.733Z,17.10
2022-08-28T21:52:37.931Z,17.10
2022-08-28T21:55:24.641Z,17.10
2022-08-28T21:58:10.280Z,17.10
2022-08-28T22:00:58.405Z,17.10
2022-08-28T22:03:45.255Z,17.10
2022-08-28T22:06:31.085Z,17.20
2022-08-28T22:09:17.985Z,17.20
2022-08-28T22:12:04.429Z,17.20
2022-08-28T22:14:49.992Z,17.20
2022-08-28T22:17:35.788Z,17.20
2022-08-28T22:20:21.439Z,17.20
2022-08-28T22:23:09.679Z,17.20
2022-08-28T22:25:55.896Z,17.10
2022-08-28T22:28:42.222Z,17.10
2022-08-28T22:31:27.945Z,17.10
2022-08-28T22:34:14.269Z,17.10
2022-08-28T22:36:59.767Z,17.10
2022-08-28T22:39:45.800Z,17.20
2022-08-28T22:42:31.534Z,17.20
2022-08-28T22:45:18.242Z,17.20
2022-08-28T22:48:04.638Z,17.20
2022-08-28T22:50:50.272Z,17.20
2022-08-28T22:53:36.490Z,17.20
2022-08-28T22:56:22.371Z,17.20
2022-08-28T22:59:08.547Z,17.10
2022-08-28T23:01:54.670Z,17.10
2022-08-28T23:04:40.605Z,17.10
2022-08-28T23:07:26.092Z,17.10
2022-08-28T23:10:13.077Z,17.10
2022-08-28T23:12:58.924Z,17.10
2022-08-28T23:15:45.891Z,17.10
2022-08-28T23:18:46.320Z,17.20
2022-08-28T23:21:42.733Z,17.20
2022-08-28T23:24:31.393Z,17.20
2022-08-28T23:27:35.709Z,17.20
2022-08-28T23:30:22.710Z,17.20
2022-08-28T23:33:08.841Z,17.10
2022-08-28T23:35:55.072Z,17.20
2022-08-28T23:38:42.898Z,17.20
2022-08-28T23:41:28.634Z,17.20
2022-08-28T23:44:16.747Z,17.10
2022-08-28T23:47:02.372Z,17.20
2022-08-28T23:49:48.219Z,17.20
2022-08-28T23:52:35.336Z,17.20
2022-08-28T23:55:21.371Z,17.10
2022-08-28T23:58:07.811Z,17.10
